Time;durP1;ratioP1;P1;durP2;ratioP2;P2;SDS_P1;SDS_P2;PMS_P1;PMS_P2;Temp;Humidity;BMP_temperature;BMP_pressure;BME280_temperature;BME280_humidity;BME280_pressure;Samples;Min_cycle;Max_cycle;Signal;HPM_P1;HPM_P2
2022/03/29 00:02:00;;;;;;;67.40;33.17;;;11.60;99.90;;;;;;5058142;28;20017;-78
2022/03/29 00:04:26;;;;;;;70.60;33.40;;;11.40;99.90;;;;;;5041794;28;20470;-78
2022/03/29 00:06:54;;;;;;;81.55;35.75;;;11.10;99.90;;;;;;5040913;28;20029;-77
2022/03/29 00:09:20;;;;;;;79.03;37.25;;;11.10;99.90;;;;;;5041403;28;20542;-80
2022/03/29 00:11:47;;;;;;;73.28;34.38;;;11.40;99.90;;;;;;5039568;28;20048;-81
2022/03/29 00:14:14;;;;;;;79.18;34.65;;;11.90;99.90;;;;;;5038660;28;20072;-78
2022/03/29 00:16:40;;;;;;;67.78;33.00;;;11.60;99.90;;;;;;5038777;28;20093;-79
2022/03/29 00:19:06;;;;;;;73.72;34.63;;;11.40;99.90;;;;;;5037412;28;20021;-79
2022/03/29 00:21:32;;;;;;;76.28;34.50;;;11.20;99.90;;;;;;5035727;28;20496;-79
2022/03/29 00:23:58;;;;;;;81.05;33.72;;;11.40;99.90;;;;;;5035576;28;20476;-78
2022/03/29 00:26:24;;;;;;;73.78;33.50;;;11.40;99.90;;;;;;5035046;28;20049;-79
2022/03/29 00:28:50;;;;;;;70.50;32.80;;;11.60;99.90;;;;;;5034375;28;20144;-79
2022/03/29 00:31:17;;;;;;;70.55;33.33;;;11.70;99.90;;;;;;5052904;28;20021;-78
2022/03/29 00:33:43;;;;;;;67.65;33.03;;;11.70;99.90;;;;;;5055352;28;20117;-79
2022/03/29 00:36:09;;;;;;;67.78;32.67;;;11.50;99.90;;;;;;5055361;28;20072;-79
2022/03/29 00:38:34;;;;;;;69.95;31.67;;;11.60;99.90;;;;;;5055220;28;20485;-79
2022/03/29 00:41:01;;;;;;;61.38;30.10;;;11.60;99.90;;;;;;5054856;28;20041;-79
2022/03/29 00:43:27;;;;;;;63.50;31.05;;;11.50;99.90;;;;;;5053728;28;20025;-79
2022/03/29 00:45:53;;;;;;;68.47;29.25;;;11.50;99.90;;;;;;5055398;28;20032;-79
2022/03/29 00:48:18;;;;;;;58.15;27.42;;;11.60;99.90;;;;;;5055053;28;20075;-79
2022/03/29 00:50:45;;;;;;;61.80;27.40;;;11.60;99.90;;;;;;5055072;28;20025;-79
2022/03/29 00:53:11;;;;;;;56.67;27.23;;;11.50;99.90;;;;;;5054904;28;20032;-79
2022/03/29 00:55:38;;;;;;;57.40;27.90;;;11.60;99.90;;;;;;5054824;28;20072;-79
2022/03/29 00:58:07;;;;;;;65.97;29.05;;;11.50;99.90;;;;;;5054973;28;20540;-79
2022/03/29 01:00:36;;;;;;;51.20;27.17;;;11.80;99.90;;;;;;5053778;28;20187;-76
2022/03/29 01:03:03;;;;;;;56.50;27.55;;;11.90;99.90;;;;;;5043068;28;20029;-76
2022/03/29 01:05:31;;;;;;;61.92;28.20;;;12.00;99.90;;;;;;5034667;28;20061;-72
2022/03/29 01:07:59;;;;;;;58.35;28.05;;;11.80;99.90;;;;;;5034654;28;20459;-77
2022/03/29 01:10:25;;;;;;;54.83;27.73;;;11.90;99.90;;;;;;5034516;28;20108;-79
2022/03/29 01:12:52;;;;;;;55.17;27.55;;;12.00;99.90;;;;;;5034900;28;20052;-73
2022/03/29 01:15:19;;;;;;;62.30;28.95;;;12.10;99.90;;;;;;5034452;28;20036;-77
2022/03/29 01:17:47;;;;;;;58.33;27.15;;;12.10;99.90;;;;;;5034691;28;20025;-74
2022/03/29 01:20:18;;;;;;;53.92;25.98;;;11.60;99.90;;;;;;5034587;28;20447;-76
2022/03/29 01:22:46;;;;;;;57.88;27.17;;;11.60;99.90;;;;;;5033381;28;20038;-74
2022/03/29 01:25:18;;;;;;;54.67;25.67;;;11.40;99.90;;;;;;5034147;28;20029;-74
2022/03/29 01:27:46;;;;;;;58.22;25.00;;;11.50;99.90;;;;;;5035374;28;20045;-75
2022/03/29 01:30:13;;;;;;;47.70;24.27;;;11.50;99.90;;;;;;5034056;28;20031;-76
2022/03/29 01:32:43;;;;;;;51.78;24.08;;;11.60;99.90;;;;;;5034298;28;20398;-77
2022/03/29 01:35:10;;;;;;;62.40;25.10;;;11.50;99.90;;;;;;5034216;28;20037;-72
2022/03/29 01:37:36;;;;;;;57.67;25.27;;;11.70;99.90;;;;;;5034453;28;20026;-79
2022/03/29 01:40:12;;;;;;;58.38;25.92;;;11.90;99.90;;;;;;5033981;28;20045;-78
2022/03/29 01:42:38;;;;;;;59.05;24.90;;;12.00;99.90;;;;;;5033008;28;20030;-78
2022/03/29 01:45:05;;;;;;;47.55;23.75;;;11.90;99.90;;;;;;5032763;28;20470;-78
2022/03/29 01:47:30;;;;;;;55.15;24.63;;;11.70;99.90;;;;;;5044137;28;20057;-78
2022/03/29 01:49:57;;;;;;;51.20;24.38;;;11.50;99.90;;;;;;5053929;28;20126;-77
2022/03/29 01:52:22;;;;;;;53.58;25.50;;;11.40;99.90;;;;;;5053797;28;20039;-78
2022/03/29 01:54:48;;;;;;;52.92;23.85;;;11.70;99.90;;;;;;5052370;28;20029;-79
2022/03/29 01:57:14;;;;;;;55.45;24.48;;;11.60;99.90;;;;;;5053628;28;20409;-79
2022/03/29 02:02:27;;;;;;;55.78;24.13;;;11.50;99.90;;;;;;5046742;28;20462;-79
2022/03/29 02:04:53;;;;;;;52.15;23.42;;;11.60;99.90;;;;;;5033797;28;20033;-78
2022/03/29 02:07:20;;;;;;;50.35;23.17;;;11.60;99.90;;;;;;5033337;28;20407;-78
2022/03/29 02:09:45;;;;;;;66.28;24.17;;;12.10;99.90;;;;;;5033771;28;20033;-79
2022/03/29 02:12:12;;;;;;;51.50;23.08;;;12.20;99.90;;;;;;5032442;28;20029;-78
2022/03/29 02:14:39;;;;;;;71.18;25.52;;;11.90;99.90;;;;;;5033534;28;20056;-78
2022/03/29 02:17:06;;;;;;;46.00;24.27;;;11.60;99.90;;;;;;5033675;28;20041;-78
2022/03/29 02:19:31;;;;;;;60.47;25.17;;;11.40;99.90;;;;;;5033489;28;20477;-79
2022/03/29 02:21:58;;;;;;;62.72;25.73;;;11.30;99.90;;;;;;5033249;28;20033;-78
2022/03/29 02:24:23;;;;;;;59.03;25.33;;;11.50;99.90;;;;;;5033259;28;20030;-78
2022/03/29 02:26:49;;;;;;;62.88;26.00;;;11.60;99.90;;;;;;5033234;28;20037;-79
2022/03/29 02:29:16;;;;;;;60.55;25.77;;;11.70;99.90;;;;;;5033362;28;20410;-79
2022/03/29 02:31:42;;;;;;;50.33;23.23;;;11.30;99.90;;;;;;5033415;28;20037;-80
2022/03/29 02:34:08;;;;;;;62.35;23.88;;;11.50;99.90;;;;;;5033354;28;20100;-79
2022/03/29 02:36:34;;;;;;;50.17;24.00;;;11.20;99.90;;;;;;5032993;28;20393;-75
2022/03/29 02:38:59;;;;;;;57.05;23.75;;;11.50;99.90;;;;;;5033183;28;20033;-77
2022/03/29 02:41:25;;;;;;;52.33;23.10;;;11.30;99.90;;;;;;5032813;28;20033;-78
2022/03/29 02:43:51;;;;;;;49.40;24.27;;;11.50;99.90;;;;;;5032770;28;20466;-76
2022/03/29 02:46:16;;;;;;;42.35;22.60;;;11.50;99.90;;;;;;5033007;28;20479;-79
2022/03/29 02:48:42;;;;;;;56.45;24.27;;;11.40;99.90;;;;;;5033160;28;20021;-79
2022/03/29 02:51:08;;;;;;;47.92;23.58;;;11.20;99.90;;;;;;5032588;28;20029;-79
2022/03/29 02:53:34;;;;;;;53.55;25.63;;;11.50;99.90;;;;;;5032950;28;20111;-78
2022/03/29 02:55:59;;;;;;;49.00;24.52;;;11.70;99.90;;;;;;5032955;28;20044;-78
2022/03/29 02:58:25;;;;;;;47.58;23.42;;;11.60;99.90;;;;;;5032807;28;20758;-78
2022/03/29 03:00:52;;;;;;;43.00;22.25;;;11.60;99.90;;;;;;5033055;28;20029;-78
2022/03/29 03:03:18;;;;;;;39.45;20.92;;;11.50;99.90;;;;;;5046235;28;20021;-79
2022/03/29 03:05:44;;;;;;;55.75;21.98;;;11.60;99.90;;;;;;5052639;28;20033;-79
2022/03/29 03:08:11;;;;;;;44.70;22.08;;;11.60;99.90;;;;;;5055574;28;20461;-76
2022/03/29 03:10:36;;;;;;;40.97;20.92;;;11.90;99.90;;;;;;5072931;28;20036;-79
2022/03/29 03:13:02;;;;;;;37.63;21.38;;;11.70;99.90;;;;;;5072623;28;20021;-78
2022/03/29 03:15:29;;;;;;;37.33;20.10;;;11.40;99.90;;;;;;5072512;28;20496;-78
2022/03/29 03:17:55;;;;;;;37.70;19.52;;;11.30;99.90;;;;;;5072628;28;20025;-78
2022/03/29 03:20:22;;;;;;;37.88;21.40;;;11.20;99.90;;;;;;5072540;28;20021;-79
2022/03/29 03:22:48;;;;;;;41.97;21.77;;;11.20;99.90;;;;;;5072698;28;20033;-76
2022/03/29 03:25:14;;;;;;;43.70;21.48;;;11.20;99.90;;;;;;5072349;28;20507;-78
2022/03/29 03:27:40;;;;;;;46.85;21.42;;;11.20;99.90;;;;;;5072337;28;20074;-78
2022/03/29 03:30:09;;;;;;;40.50;20.48;;;11.20;99.90;;;;;;5072593;28;20465;-78
2022/03/29 03:32:35;;;;;;;43.95;20.85;;;11.20;99.90;;;;;;5072601;28;20037;-79
2022/03/29 03:35:01;;;;;;;39.80;21.42;;;11.40;99.90;;;;;;5072090;28;20032;-79
2022/03/29 03:37:27;;;;;;;36.40;20.95;;;11.70;99.90;;;;;;5072346;28;20397;-79
2022/03/29 03:39:52;;;;;;;41.72;22.00;;;11.70;99.90;;;;;;5072529;28;20048;-79
2022/03/29 03:42:18;;;;;;;42.00;21.45;;;11.70;99.90;;;;;;5072141;28;20111;-79
2022/03/29 03:44:44;;;;;;;46.40;22.70;;;11.70;99.90;;;;;;5072465;28;20033;-79
2022/03/29 03:47:10;;;;;;;39.78;21.83;;;11.90;99.90;;;;;;5064987;28;20025;-79
2022/03/29 03:49:37;;;;;;;46.35;24.05;;;11.80;99.90;;;;;;5051951;28;20469;-79
2022/03/29 03:52:04;;;;;;;37.25;21.75;;;11.70;99.90;;;;;;5052359;28;20029;-79
2022/03/29 03:54:29;;;;;;;43.13;22.90;;;11.90;99.90;;;;;;5052053;28;20067;-78
2022/03/29 03:56:55;;;;;;;50.65;24.50;;;11.90;99.90;;;;;;5054312;28;20069;-79
2022/03/29 03:59:21;;;;;;;43.20;23.70;;;12.10;99.90;;;;;;5055988;28;20017;-79
2022/03/29 04:01:47;;;;;;;45.90;23.85;;;12.10;99.90;;;;;;5055825;28;20537;-79
2022/03/29 04:04:13;;;;;;;45.58;24.80;;;11.90;99.90;;;;;;5055848;28;20121;-78
2022/03/29 04:06:39;;;;;;;54.05;24.75;;;11.80;99.90;;;;;;5055832;28;20036;-78
2022/03/29 04:09:04;;;;;;;50.22;24.73;;;11.70;99.90;;;;;;5055905;28;20035;-78
2022/03/29 04:11:30;;;;;;;49.55;25.05;;;11.70;99.90;;;;;;5055646;28;20075;-78
2022/03/29 04:13:59;;;;;;;44.00;25.20;;;11.10;99.90;;;;;;5055726;28;20051;-78
2022/03/29 04:16:25;;;;;;;57.40;26.90;;;11.20;99.90;;;;;;5054519;28;20041;-78
2022/03/29 04:18:51;;;;;;;51.10;26.77;;;11.20;99.90;;;;;;5055366;28;20036;-79
2022/03/29 04:21:17;;;;;;;53.08;25.83;;;11.10;99.90;;;;;;5055520;28;20033;-80
2022/03/29 04:23:43;;;;;;;60.58;26.35;;;10.90;99.90;;;;;;5055660;28;20036;-78
2022/03/29 04:26:10;;;;;;;52.70;27.13;;;10.80;99.90;;;;;;5055452;28;20123;-78
2022/03/29 04:28:36;;;;;;;52.17;26.10;;;10.90;99.90;;;;;;5055469;28;20370;-78
2022/03/29 04:31:01;;;;;;;52.92;27.20;;;10.70;99.90;;;;;;5055554;28;20040;-77
2022/03/29 04:33:28;;;;;;;54.45;27.90;;;10.70;99.90;;;;;;5053730;28;20524;-78
2022/03/29 04:35:55;;;;;;;55.15;29.63;;;10.40;99.90;;;;;;5055329;28;20045;-74
2022/03/29 04:38:21;;;;;;;48.35;26.45;;;10.50;99.90;;;;;;5055298;28;20017;-78
2022/03/29 04:40:47;;;;;;;45.97;26.77;;;10.60;99.90;;;;;;5055160;28;20025;-81
2022/03/29 04:43:13;;;;;;;53.22;27.85;;;10.90;99.90;;;;;;5055374;28;20480;-80
2022/03/29 04:45:39;;;;;;;53.05;29.83;;;11.20;99.90;;;;;;5054992;28;20094;-79
2022/03/29 04:48:06;;;;;;;48.50;27.63;;;11.40;99.90;;;;;;5055271;28;20412;-75
2022/03/29 04:50:32;;;;;;;48.38;27.77;;;11.10;99.90;;;;;;5054997;28;20075;-75
2022/03/29 04:52:58;;;;;;;47.97;26.83;;;11.00;99.90;;;;;;5054999;28;20052;-77
2022/03/29 04:55:24;;;;;;;51.85;28.65;;;10.70;99.90;;;;;;5054798;28;20071;-78
2022/03/29 04:57:50;;;;;;;54.15;28.98;;;10.60;99.90;;;;;;5055098;28;20060;-74
2022/03/29 05:00:22;;;;;;;52.47;28.63;;;10.50;99.90;;;;;;5055040;28;20444;-79
2022/03/29 05:02:49;;;;;;;48.90;27.27;;;10.50;99.90;;;;;;5049044;28;20523;-75
2022/03/29 05:05:15;;;;;;;52.97;29.45;;;10.70;99.90;;;;;;5055033;28;20021;-77
2022/03/29 05:07:41;;;;;;;61.90;27.77;;;10.70;99.90;;;;;;5054296;28;20087;-78
2022/03/29 05:10:08;;;;;;;63.97;27.23;;;10.70;99.90;;;;;;5054818;28;20412;-79
2022/03/29 05:12:49;;;;;;;59.42;28.58;;;10.80;99.90;;;;;;5053431;28;20037;-78
2022/03/29 05:15:17;;;;;;;58.97;28.38;;;10.50;99.90;;;;;;5054316;28;20033;-79
2022/03/29 05:17:44;;;;;;;56.65;27.30;;;10.50;99.90;;;;;;5053082;28;20033;-79
2022/03/29 05:20:11;;;;;;;51.80;27.70;;;10.70;99.90;;;;;;5054343;28;20021;-79
2022/03/29 05:22:51;;;;;;;49.42;27.83;;;10.90;99.90;;;;;;5054553;28;20400;-79
2022/03/29 05:25:20;;;;;;;49.70;25.60;;;11.10;99.90;;;;;;5054390;28;20061;-79
2022/03/29 05:27:46;;;;;;;54.17;27.00;;;11.00;99.90;;;;;;5054442;28;20461;-79
2022/03/29 05:30:13;;;;;;;46.03;27.23;;;11.00;99.90;;;;;;5054172;28;20028;-79
2022/03/29 05:32:39;;;;;;;50.05;27.17;;;11.10;99.90;;;;;;5054030;28;20098;-79
2022/03/29 05:35:07;;;;;;;48.78;26.27;;;11.20;99.90;;;;;;5054128;28;20465;-79
2022/03/29 05:37:37;;;;;;;47.03;26.25;;;11.10;99.90;;;;;;5054161;28;20171;-79
2022/03/29 05:40:04;;;;;;;52.22;27.92;;;11.00;99.90;;;;;;5054230;28;20427;-79
2022/03/29 05:42:30;;;;;;;54.67;26.88;;;10.90;99.90;;;;;;5053979;28;20040;-79
2022/03/29 05:44:56;;;;;;;56.50;26.88;;;11.00;99.90;;;;;;5053625;28;20454;-79
2022/03/29 05:50:07;;;;;;;51.28;28.20;;;11.40;99.90;;;;;;5053897;28;20037;-77
2022/03/29 05:52:32;;;;;;;54.15;27.45;;;11.40;99.90;;;;;;5053747;28;20110;-75
2022/03/29 05:54:58;;;;;;;60.42;27.17;;;10.80;99.90;;;;;;5053759;28;20481;-76
2022/03/29 05:57:24;;;;;;;63.88;28.20;;;10.80;99.90;;;;;;5052396;28;20059;-76
2022/03/29 05:59:50;;;;;;;54.53;27.25;;;10.80;99.90;;;;;;5053571;28;20028;-74
2022/03/29 06:02:16;;;;;;;53.20;25.98;;;10.80;99.90;;;;;;5037296;28;20104;-75
2022/03/29 06:04:42;;;;;;;53.13;26.75;;;10.90;99.90;;;;;;5033291;28;20121;-77
2022/03/29 06:07:08;;;;;;;52.58;27.50;;;10.80;99.90;;;;;;5031989;28;20069;-76
2022/03/29 06:09:35;;;;;;;51.20;26.13;;;10.90;99.90;;;;;;5033197;28;20099;-75
2022/03/29 06:12:02;;;;;;;51.58;27.20;;;10.80;99.90;;;;;;5033206;28;20501;-77
2022/03/29 06:14:28;;;;;;;55.92;27.95;;;10.80;99.90;;;;;;5031654;28;20104;-77
2022/03/29 06:16:55;;;;;;;49.03;25.45;;;11.10;99.90;;;;;;5031444;28;20135;-75
2022/03/29 06:19:21;;;;;;;54.22;26.75;;;11.20;99.90;;;;;;5030874;28;20049;-76
2022/03/29 06:21:47;;;;;;;58.92;26.65;;;11.40;99.90;;;;;;5015304;28;20417;-73
2022/03/29 06:24:13;;;;;;;52.22;26.83;;;11.20;99.90;;;;;;5033198;28;20080;-78
2022/03/29 06:26:39;;;;;;;78.40;27.27;;;11.30;99.90;;;;;;5032912;28;20039;-73
2022/03/29 06:29:07;;;;;;;57.63;27.17;;;11.60;99.90;;;;;;5032426;28;20033;-73
2022/03/29 06:31:33;;;;;;;55.03;25.27;;;11.80;99.90;;;;;;5040676;28;20083;-74
2022/03/29 06:33:59;;;;;;;60.22;26.35;;;11.50;99.90;;;;;;5050933;28;20047;-76
2022/03/29 06:36:25;;;;;;;55.63;25.98;;;11.40;99.90;;;;;;5049567;28;20420;-74
2022/03/29 06:38:51;;;;;;;59.55;25.80;;;11.40;99.90;;;;;;5052203;28;20025;-78
2022/03/29 06:41:17;;;;;;;54.05;25.05;;;11.50;99.90;;;;;;5051224;28;20504;-77
2022/03/29 06:43:43;;;;;;;53.63;26.88;;;11.10;99.90;;;;;;5052019;28;20021;-73
2022/03/29 06:46:09;;;;;;;51.05;26.48;;;11.10;99.90;;;;;;5052698;28;20532;-75
2022/03/29 06:48:36;;;;;;;106.70;64.55;;;11.10;99.90;;;;;;5029197;28;20033;-78
2022/03/29 06:51:02;;;;;;;55.58;28.85;;;11.10;99.90;;;;;;5030487;28;20040;-77
2022/03/29 06:53:28;;;;;;;52.45;27.55;;;11.10;99.90;;;;;;5032388;28;20288;-78
2022/03/29 06:55:54;;;;;;;50.65;31.58;;;11.20;99.90;;;;;;5032235;28;20164;-74
2022/03/29 06:58:20;;;;;;;60.83;28.52;;;11.30;99.90;;;;;;5032251;28;20022;-77
2022/03/29 07:00:47;;;;;;;53.45;28.40;;;11.40;99.90;;;;;;5032842;28;20487;-76
2022/03/29 07:03:12;;;;;;;58.90;29.20;;;11.80;99.90;;;;;;5050153;28;20018;-78
2022/03/29 07:05:42;;;;;;;71.72;29.45;;;11.80;99.90;;;;;;5047155;28;20048;-78
2022/03/29 07:08:12;;;;;;;62.22;29.20;;;11.80;99.90;;;;;;5032392;28;20061;-78
2022/03/29 07:13:23;;;;;;;78.15;31.73;;;12.00;99.90;;;;;;5032253;28;20025;-78
2022/03/29 07:15:50;;;;;;;65.75;31.27;;;11.80;99.90;;;;;;5032241;28;20116;-78
2022/03/29 07:18:16;;;;;;;62.25;31.33;;;11.60;99.90;;;;;;5032303;28;20021;-82
2022/03/29 07:20:42;;;;;;;63.63;31.23;;;11.50;99.90;;;;;;5032286;28;20036;-79
2022/03/29 07:23:08;;;;;;;66.85;31.88;;;11.50;99.90;;;;;;5032109;28;20459;-78
2022/03/29 07:25:34;;;;;;;57.67;31.20;;;11.60;99.90;;;;;;5032007;28;20037;-78
2022/03/29 07:28:01;;;;;;;59.20;32.00;;;11.60;99.90;;;;;;5030753;28;20044;-76
2022/03/29 07:30:28;;;;;;;63.25;32.97;;;11.70;99.90;;;;;;5033483;28;20032;-79
2022/03/29 07:32:59;;;;;;;56.13;32.75;;;11.90;99.90;;;;;;5055497;28;20033;-76
2022/03/29 07:35:28;;;;;;;52.70;32.27;;;12.10;99.90;;;;;;5055780;28;20041;-77
2022/03/29 07:37:55;;;;;;;57.78;34.17;;;11.90;99.90;;;;;;5055944;28;20033;-76
2022/03/29 07:40:24;;;;;;;61.55;33.13;;;11.70;99.90;;;;;;5055901;28;20867;-78
2022/03/29 07:42:50;;;;;;;52.53;32.97;;;11.50;99.90;;;;;;5071283;28;20362;-80
2022/03/29 07:45:17;;;;;;;57.65;33.38;;;11.30;99.90;;;;;;5048264;28;20029;-79
2022/03/29 07:47:44;;;;;;;52.78;34.10;;;11.30;99.90;;;;;;5035669;28;20033;-80
2022/03/29 07:50:11;;;;;;;57.33;33.47;;;11.30;99.90;;;;;;5035440;28;20397;-79
2022/03/29 07:52:40;;;;;;;56.58;35.05;;;11.40;99.90;;;;;;5035155;28;20032;-79
2022/03/29 07:55:08;;;;;;;59.65;35.38;;;11.80;99.90;;;;;;5035415;28;20033;-80
2022/03/29 07:57:34;;;;;;;63.08;35.60;;;11.70;99.90;;;;;;5033646;28;20534;-78
2022/03/29 08:00:31;;;;;;;56.45;34.08;;;12.00;99.90;;;;;;5035361;28;20121;-79
2022/03/29 08:02:50;;;;;;;58.65;36.97;;;11.60;99.90;;;;;;5052623;28;20041;-79
2022/03/29 08:05:16;;;;;;;64.10;37.15;;;11.90;99.90;;;;;;5052079;28;20048;-78
2022/03/29 08:07:42;;;;;;;66.47;37.40;;;12.10;99.90;;;;;;5043662;28;20035;-79
2022/03/29 08:10:08;;;;;;;65.38;37.28;;;12.10;99.90;;;;;;5034751;28;20037;-80
2022/03/29 08:12:35;;;;;;;58.95;36.72;;;12.20;99.90;;;;;;5033867;28;20083;-78
2022/03/29 08:15:02;;;;;;;64.03;38.00;;;11.90;99.90;;;;;;5035245;28;20037;-79
2022/03/29 08:17:27;;;;;;;57.20;36.17;;;12.00;99.90;;;;;;5045737;28;20061;-80
2022/03/29 08:19:53;;;;;;;62.60;36.47;;;12.10;99.90;;;;;;5054151;28;20513;-80
2022/03/29 08:22:19;;;;;;;74.70;38.15;;;12.10;99.90;;;;;;5033633;28;20100;-79
2022/03/29 08:24:45;;;;;;;61.17;37.00;;;12.20;99.90;;;;;;5034372;28;20045;-80
2022/03/29 08:27:11;;;;;;;60.05;37.65;;;12.00;99.90;;;;;;5035190;28;20071;-80
2022/03/29 08:29:37;;;;;;;58.00;36.50;;;12.20;99.90;;;;;;5035105;28;20022;-79
2022/03/29 08:32:04;;;;;;;64.38;38.35;;;12.00;99.90;;;;;;5047621;28;20040;-80
2022/03/29 08:34:31;;;;;;;64.20;38.25;;;12.30;99.90;;;;;;5053876;28;20029;-78
2022/03/29 08:36:57;;;;;;;66.85;39.60;;;12.50;99.90;;;;;;5054681;28;20041;-81
2022/03/29 08:39:23;;;;;;;68.25;37.40;;;12.50;99.90;;;;;;5053999;28;20041;-80
2022/03/29 08:42:10;;;;;;;59.50;37.42;;;12.30;99.90;;;;;;5038926;28;20044;-80
2022/03/29 08:44:38;;;;;;;63.03;36.35;;;12.40;99.90;;;;;;5051595;28;20057;-80
2022/03/29 08:47:08;;;;;;;59.88;38.25;;;12.40;99.90;;;;;;5054680;28;20074;-79
2022/03/29 08:49:35;;;;;;;60.97;38.53;;;12.70;99.90;;;;;;5053407;28;20021;-80
2022/03/29 08:52:02;;;;;;;58.13;37.20;;;12.80;99.90;;;;;;5054435;28;20126;-77
2022/03/29 08:54:28;;;;;;;77.72;39.00;;;13.00;99.90;;;;;;5052555;28;20363;-80
2022/03/29 08:56:54;;;;;;;65.10;39.08;;;13.10;99.90;;;;;;5034626;28;20778;-77
2022/03/29 08:59:20;;;;;;;67.13;38.83;;;13.10;99.90;;;;;;5034475;28;20028;-78
2022/03/29 09:01:47;;;;;;;64.07;36.83;;;12.90;99.90;;;;;;5044473;28;20025;-80
2022/03/29 09:04:21;;;;;;;66.60;39.03;;;13.40;99.90;;;;;;5054479;28;20477;-80
2022/03/29 09:06:50;;;;;;;64.03;39.47;;;13.30;99.90;;;;;;5054280;28;20420;-78
2022/03/29 09:09:29;;;;;;;63.03;39.22;;;13.30;99.90;;;;;;5052763;28;20488;-77
2022/03/29 09:12:19;;;;;;;60.45;38.75;;;13.30;99.90;;;;;;5054119;28;20043;-79
2022/03/29 09:14:54;;;;;;;64.13;40.72;;;13.60;99.90;;;;;;5053995;28;20130;-79
2022/03/29 09:17:26;;;;;;;66.88;40.05;;;13.10;99.90;;;;;;5054436;28;20036;-79
2022/03/29 09:19:52;;;;;;;61.08;39.30;;;13.30;99.90;;;;;;5054086;28;20036;-78
2022/03/29 09:22:42;;;;;;;69.25;40.83;;;13.40;99.90;;;;;;5053950;28;20029;-78
2022/03/29 09:25:13;;;;;;;64.25;41.28;;;13.80;99.90;;;;;;5053985;28;20041;-79
2022/03/29 09:28:13;;;;;;;61.10;42.33;;;13.50;99.90;;;;;;5054108;28;20029;-79
2022/03/29 09:30:51;;;;;;;62.45;39.55;;;13.60;99.90;;;;;;5046440;28;20033;-77
2022/03/29 09:33:27;;;;;;;65.57;41.25;;;13.70;99.90;;;;;;5053930;28;20037;-79
2022/03/29 09:35:57;;;;;;;62.70;39.80;;;13.80;99.90;;;;;;5053475;28;20391;-79
2022/03/29 09:38:37;;;;;;;74.43;43.70;;;13.70;99.90;;;;;;5053677;28;20037;-76
2022/03/29 09:41:05;;;;;;;77.43;43.75;;;13.80;99.90;;;;;;5053617;28;20107;-77
2022/03/29 09:44:06;;;;;;;67.82;42.30;;;13.70;99.90;;;;;;5053858;28;20098;-75
2022/03/29 09:46:56;;;;;;;63.83;41.10;;;13.70;99.90;;;;;;5053363;28;20044;-76
2022/03/29 09:49:23;;;;;;;63.15;42.90;;;13.90;99.90;;;;;;5053825;28;20039;-74
2022/03/29 09:52:09;;;;;;;69.32;42.03;;;14.00;99.90;;;;;;5053214;28;20450;-78
2022/03/29 09:54:36;;;;;;;89.90;47.25;;;14.00;99.90;;;;;;5053592;28;20025;-78
2022/03/29 09:57:03;;;;;;;77.18;43.17;;;14.20;99.90;;;;;;5053279;28;20125;-75
2022/03/29 09:59:31;;;;;;;78.97;45.17;;;14.00;99.90;;;;;;5053364;28;20037;-77
2022/03/29 10:01:57;;;;;;;66.55;42.92;;;14.10;99.90;;;;;;5040619;28;20025;-77
2022/03/29 10:04:30;;;;;;;74.68;45.55;;;14.00;99.90;;;;;;5033650;28;20029;-76
2022/03/29 10:06:57;;;;;;;69.13;44.88;;;14.30;99.90;;;;;;5032774;28;20036;-77
2022/03/29 10:09:30;;;;;;;73.30;42.33;;;14.40;99.90;;;;;;5034257;28;20030;-73
2022/03/29 10:12:07;;;;;;;67.57;44.10;;;14.90;99.90;;;;;;5034775;28;20378;-77
2022/03/29 10:14:40;;;;;;;71.22;42.25;;;15.20;99.90;;;;;;5031380;28;20068;-76
2022/03/29 10:17:06;;;;;;;67.07;42.88;;;15.50;99.90;;;;;;5032626;28;20045;-78
2022/03/29 10:19:34;;;;;;;75.78;44.92;;;15.30;99.90;;;;;;5032852;28;20463;-78
2022/03/29 10:22:01;;;;;;;63.95;44.63;;;15.50;99.90;;;;;;5032347;28;20108;-75
2022/03/29 10:24:29;;;;;;;65.78;43.63;;;15.60;99.90;;;;;;5032942;28;20021;-74
2022/03/29 10:26:56;;;;;;;67.22;44.47;;;16.00;99.90;;;;;;5032598;28;20021;-77
2022/03/29 10:29:23;;;;;;;75.45;45.78;;;15.90;99.90;;;;;;5032979;28;20504;-78
2022/03/29 10:31:53;;;;;;;66.93;44.40;;;16.00;99.90;;;;;;5041623;28;20424;-80
2022/03/29 10:34:30;;;;;;;75.18;42.22;;;16.10;99.90;;;;;;5051616;28;20037;-79
2022/03/29 10:37:18;;;;;;;62.38;41.95;;;15.60;99.90;;;;;;5052158;28;20041;-80
2022/03/29 10:39:45;;;;;;;68.13;44.83;;;15.70;99.90;;;;;;5052497;28;20060;-80
2022/03/29 10:42:38;;;;;;;67.90;45.47;;;15.70;99.90;;;;;;5051305;28;20104;-78
2022/03/29 10:45:09;;;;;;;70.50;43.75;;;15.90;99.90;;;;;;5048225;28;20032;-78
2022/03/29 10:47:36;;;;;;;66.30;43.92;;;15.10;99.90;;;;;;5043924;28;20396;-79
2022/03/29 10:50:04;;;;;;;64.25;39.97;;;14.90;99.90;;;;;;5040064;28;20033;-84
2022/03/29 10:52:37;;;;;;;67.38;42.17;;;14.70;99.90;;;;;;5031323;28;20037;-83
2022/03/29 10:55:18;;;;;;;65.80;42.80;;;15.40;99.90;;;;;;5030790;28;20029;-83
2022/03/29 10:58:08;;;;;;;65.50;43.30;;;15.60;99.90;;;;;;5030703;28;20095;-83
2022/03/29 11:00:40;;;;;;;64.70;43.67;;;15.50;99.90;;;;;;5032995;28;20037;-81
2022/03/29 11:03:21;;;;;;;71.55;44.15;;;15.50;99.90;;;;;;5043403;28;20028;-83
2022/03/29 11:06:10;;;;;;;66.50;43.83;;;16.00;99.90;;;;;;5051871;28;20064;-81
2022/03/29 11:08:41;;;;;;;68.25;42.72;;;15.90;99.90;;;;;;5052771;28;20509;-83
2022/03/29 11:11:28;;;;;;;71.80;46.33;;;15.60;99.90;;;;;;5052790;28;20036;-84
2022/03/29 11:13:54;;;;;;;69.93;44.53;;;16.20;99.90;;;;;;5052581;28;20048;-83
2022/03/29 11:16:25;;;;;;;68.15;42.47;;;16.30;99.90;;;;;;5052952;28;20029;-81
2022/03/29 11:18:52;;;;;;;82.78;48.20;;;16.80;99.90;;;;;;5044112;28;20075;-83
2022/03/29 11:21:33;;;;;;;72.10;46.10;;;16.50;99.90;;;;;;5032565;28;20025;-83
2022/03/29 11:24:01;;;;;;;73.97;46.87;;;16.50;99.60;;;;;;5032614;28;20104;-83
2022/03/29 11:26:27;;;;;;;71.35;46.97;;;16.60;99.90;;;;;;5032716;28;20491;-83
2022/03/29 11:28:56;;;;;;;73.88;45.92;;;15.90;99.90;;;;;;5032613;28;20064;-82
2022/03/29 11:31:25;;;;;;;68.50;43.15;;;15.70;99.90;;;;;;5032594;28;20470;-84
2022/03/29 11:33:55;;;;;;;70.85;44.67;;;16.30;99.90;;;;;;5032183;28;20025;-83
2022/03/29 11:36:22;;;;;;;69.68;43.95;;;16.40;99.90;;;;;;5032527;28;20492;-83
2022/03/29 11:38:48;;;;;;;72.38;44.58;;;16.30;99.90;;;;;;5032449;28;20033;-83
2022/03/29 11:41:29;;;;;;;68.50;42.20;;;16.20;99.90;;;;;;5031162;28;20033;-83
2022/03/29 11:44:15;;;;;;;68.53;42.55;;;16.10;99.90;;;;;;5032381;28;20109;-83
2022/03/29 11:46:50;;;;;;;68.45;41.38;;;16.30;99.90;;;;;;5032532;28;20033;-83
2022/03/29 11:49:18;;;;;;;70.38;39.30;;;15.90;99.90;;;;;;5030812;28;20034;-83
2022/03/29 11:52:08;;;;;;;64.97;41.13;;;15.80;99.90;;;;;;5032883;28;20079;-82
2022/03/29 11:54:44;;;;;;;62.42;41.15;;;16.00;99.90;;;;;;5033927;28;20486;-83
2022/03/29 11:57:36;;;;;;;72.72;42.25;;;16.30;99.90;;;;;;5032207;28;20433;-84
2022/03/29 12:00:04;;;;;;;75.72;41.70;;;16.30;99.50;;;;;;5031917;28;20549;-84
2022/03/29 12:02:39;;;;;;;72.32;42.97;;;16.60;99.30;;;;;;5039269;28;20032;-84
2022/03/29 12:05:05;;;;;;;64.15;40.35;;;16.60;99.30;;;;;;5052246;28;20033;-84
2022/03/29 12:07:44;;;;;;;77.95;42.38;;;16.40;99.20;;;;;;5050701;28;20052;-83
2022/03/29 12:10:15;;;;;;;68.80;41.90;;;16.60;98.80;;;;;;5052092;28;20470;-83
2022/03/29 12:12:50;;;;;;;71.35;41.03;;;17.00;99.20;;;;;;5051992;28;20029;-84
2022/03/29 12:15:19;;;;;;;65.70;42.58;;;16.90;98.80;;;;;;5062320;28;20040;-84
2022/03/29 12:20:41;;;;;;;62.40;38.88;;;16.90;99.10;;;;;;5075906;28;20032;-84
2022/03/29 12:23:27;;;;;;;66.15;40.65;;;16.80;98.50;;;;;;5075605;28;20033;-83
2022/03/29 12:25:55;;;;;;;62.75;40.65;;;16.80;98.70;;;;;;5074323;28;20037;-83
2022/03/29 12:28:22;;;;;;;67.22;42.05;;;16.50;99.20;;;;;;5058803;28;20139;-83
2022/03/29 12:30:49;;;;;;;63.25;41.13;;;16.80;99.30;;;;;;5054943;28;20109;-83
2022/03/29 12:33:15;;;;;;;61.28;40.83;;;16.90;98.50;;;;;;5055340;28;20369;-84
2022/03/29 12:35:41;;;;;;;61.40;37.90;;;17.30;98.50;;;;;;5055140;28;20037;-83
2022/03/29 12:38:11;;;;;;;57.30;38.30;;;17.60;97.60;;;;;;5055184;28;20101;-83
2022/03/29 12:40:39;;;;;;;58.15;39.03;;;18.00;96.50;;;;;;5054018;28;20024;-83
2022/03/29 12:43:07;;;;;;;58.55;39.50;;;18.10;96.20;;;;;;5055180;28;20025;-80
2022/03/29 12:45:34;;;;;;;63.15;40.47;;;17.70;95.70;;;;;;5054807;28;20357;-83